Time;durP1;ratioP1;P1;durP2;ratioP2;P2;SDS_P1;SDS_P2;PMS_P1;PMS_P2;Temp;Humidity;BMP_temperature;BMP_pressure;BME280_temperature;BME280_humidity;BME280_pressure;Samples;Min_cycle;Max_cycle;Signal;HPM_P1;HPM_P2
2023/04/29 00:00:26;;;;;;;4.90;2.90;;;13.20;99.90;;;;;;5055895;28;20209;-56
2023/04/29 00:02:54;;;;;;;3.77;2.30;;;13.20;99.90;;;;;;5055366;28;20206;-56
2023/04/29 00:05:21;;;;;;;3.20;2.50;;;13.20;99.90;;;;;;5055390;28;20206;-55
2023/04/29 00:07:48;;;;;;;4.77;2.80;;;13.20;99.90;;;;;;5055545;28;20316;-56
2023/04/29 00:10:15;;;;;;;3.13;2.30;;;13.20;99.90;;;;;;5055403;28;20230;-55
2023/04/29 00:12:42;;;;;;;5.53;2.50;;;13.10;99.90;;;;;;5055268;28;20228;-57
2023/04/29 00:15:09;;;;;;;2.80;2.30;;;13.10;99.90;;;;;;5055412;28;20251;-56
2023/04/29 00:17:36;;;;;;;2.37;2.17;;;13.10;99.90;;;;;;5055278;28;20288;-57
2023/04/29 00:20:06;;;;;;;2.60;2.40;;;13.00;99.90;;;;;;5055354;28;20724;-56
2023/04/29 00:22:33;;;;;;;3.13;2.53;;;13.00;99.90;;;;;;5055286;28;20205;-57
2023/04/29 00:25:00;;;;;;;2.27;2.07;;;13.00;99.90;;;;;;5055581;28;20244;-57
2023/04/29 00:27:27;;;;;;;3.20;2.50;;;12.90;99.90;;;;;;5055559;28;20240;-57
2023/04/29 00:29:54;;;;;;;3.43;2.20;;;13.00;99.90;;;;;;5055107;28;20253;-57
2023/04/29 00:32:21;;;;;;;2.37;2.17;;;12.90;99.90;;;;;;5054962;28;20693;-57
2023/04/29 00:34:48;;;;;;;6.13;2.30;;;12.90;99.90;;;;;;5055745;28;20202;-56
2023/04/29 00:37:16;;;;;;;3.13;2.60;;;12.90;99.90;;;;;;5055629;28;20579;-56
2023/04/29 00:39:43;;;;;;;3.20;2.83;;;13.00;99.90;;;;;;5055514;28;20275;-57
2023/04/29 00:42:11;;;;;;;2.57;2.33;;;13.00;99.90;;;;;;5055226;28;20205;-57
2023/04/29 00:44:38;;;;;;;3.33;2.70;;;13.00;99.90;;;;;;5055515;28;20210;-57
2023/04/29 00:47:04;;;;;;;5.63;2.53;;;13.10;99.90;;;;;;5055089;28;20568;-57
2023/04/29 00:49:31;;;;;;;2.90;2.40;;;13.10;99.90;;;;;;5055503;28;20226;-57
2023/04/29 00:52:00;;;;;;;2.60;2.13;;;13.10;99.90;;;;;;5055149;28;20216;-56
2023/04/29 00:54:29;;;;;;;4.00;2.60;;;13.10;99.90;;;;;;5054910;28;20213;-57
2023/04/29 00:56:58;;;;;;;3.10;2.60;;;13.10;99.90;;;;;;5054831;28;20197;-57
2023/04/29 00:59:30;;;;;;;3.40;2.43;;;13.00;99.90;;;;;;5054570;28;20230;-57
2023/04/29 01:01:59;;;;;;;2.87;2.40;;;12.90;99.90;;;;;;5054765;28;20206;-57
2023/04/29 01:04:26;;;;;;;2.70;2.40;;;12.80;99.90;;;;;;5054752;28;20268;-57
2023/04/29 01:07:01;;;;;;;4.57;2.53;;;12.80;99.90;;;;;;5054595;28;20389;-56
2023/04/29 01:09:45;;;;;;;5.27;2.57;;;12.80;99.90;;;;;;5054618;28;20529;-57
2023/04/29 01:12:21;;;;;;;2.83;2.53;;;12.80;99.90;;;;;;5054374;28;20247;-57
2023/04/29 01:14:55;;;;;;;2.30;2.10;;;12.80;99.90;;;;;;5054805;28;20208;-57
2023/04/29 01:17:25;;;;;;;3.83;3.30;;;12.80;99.90;;;;;;5054539;28;20375;-57
2023/04/29 01:19:55;;;;;;;2.90;2.60;;;12.80;99.90;;;;;;5054505;28;20308;-57
2023/04/29 01:22:22;;;;;;;4.47;2.77;;;12.70;99.90;;;;;;5054451;28;20194;-57
2023/04/29 01:24:51;;;;;;;3.03;2.77;;;12.70;99.90;;;;;;5054387;28;20197;-58
2023/04/29 01:27:29;;;;;;;2.53;2.33;;;12.70;99.90;;;;;;5054104;28;20689;-57
2023/04/29 01:30:02;;;;;;;2.80;2.30;;;12.70;99.90;;;;;;5054252;28;20232;-57
2023/04/29 01:32:41;;;;;;;3.37;2.50;;;12.60;99.90;;;;;;5053834;28;20554;-57
2023/04/29 01:35:16;;;;;;;5.20;2.20;;;12.60;99.90;;;;;;5054032;28;20292;-57
2023/04/29 01:37:51;;;;;;;2.73;2.50;;;12.60;99.90;;;;;;5054104;28;20211;-57
2023/04/29 01:40:25;;;;;;;2.80;2.50;;;12.50;99.90;;;;;;5054315;28;20243;-55
2023/04/29 01:43:00;;;;;;;4.50;2.60;;;12.50;99.90;;;;;;5053725;28;20263;-55
2023/04/29 01:45:28;;;;;;;2.80;2.50;;;12.40;99.90;;;;;;5053780;28;20615;-55
2023/04/29 01:47:56;;;;;;;4.90;2.83;;;12.40;99.90;;;;;;5053560;28;20239;-55
2023/04/29 01:50:23;;;;;;;3.07;2.37;;;12.30;99.90;;;;;;5053866;28;20275;-55
2023/04/29 01:52:50;;;;;;;3.63;2.50;;;12.30;99.90;;;;;;5053326;28;20211;-56
2023/04/29 01:55:18;;;;;;;3.47;2.70;;;12.30;99.90;;;;;;5053590;28;20715;-55
2023/04/29 01:57:45;;;;;;;3.67;3.00;;;12.30;99.90;;;;;;5053478;28;20297;-55
2023/04/29 02:00:12;;;;;;;4.60;3.03;;;12.30;99.90;;;;;;5053613;28;20229;-55
2023/04/29 02:02:39;;;;;;;4.67;2.67;;;12.30;99.90;;;;;;5053426;28;20201;-55
2023/04/29 02:05:06;;;;;;;3.10;2.83;;;12.20;99.90;;;;;;5052467;28;20683;-55
2023/04/29 02:07:33;;;;;;;2.70;2.50;;;12.20;99.90;;;;;;5053305;28;20661;-54
2023/04/29 02:10:00;;;;;;;8.50;3.70;;;12.20;99.90;;;;;;5053098;28;20232;-54
2023/04/29 02:12:28;;;;;;;3.50;3.20;;;12.10;99.90;;;;;;5053000;28;20620;-54
2023/04/29 02:14:55;;;;;;;3.67;3.30;;;12.10;99.90;;;;;;5053066;28;20685;-54
2023/04/29 02:17:22;;;;;;;3.17;2.87;;;12.10;99.90;;;;;;5053122;28;20212;-54
2023/04/29 02:19:49;;;;;;;2.57;2.37;;;12.00;99.90;;;;;;5052931;28;20308;-54
2023/04/29 02:22:16;;;;;;;5.03;2.40;;;12.00;99.90;;;;;;5052989;28;20205;-54
2023/04/29 02:24:43;;;;;;;3.10;2.47;;;11.90;99.90;;;;;;5052954;28;20293;-54
2023/04/29 02:27:09;;;;;;;2.73;2.20;;;11.80;99.90;;;;;;5053152;28;20206;-54
2023/04/29 02:29:38;;;;;;;5.93;2.10;;;11.80;99.90;;;;;;5052687;28;20264;-53
2023/04/29 02:32:05;;;;;;;2.50;2.30;;;11.70;99.90;;;;;;5052915;28;20581;-56
2023/04/29 02:34:32;;;;;;;4.23;2.50;;;11.60;99.90;;;;;;5052797;28;20213;-53
2023/04/29 02:36:59;;;;;;;3.90;2.60;;;11.60;99.90;;;;;;5052792;28;20212;-53
2023/04/29 02:39:26;;;;;;;2.27;2.07;;;11.60;99.90;;;;;;5052630;28;20225;-53
2023/04/29 02:41:54;;;;;;;2.40;2.20;;;11.60;99.90;;;;;;5052668;28;20206;-53
2023/04/29 02:44:21;;;;;;;2.83;2.30;;;11.50;99.90;;;;;;5052643;28;20201;-52
2023/04/29 02:46:49;;;;;;;2.60;2.40;;;11.60;99.90;;;;;;5052698;28;20201;-54
2023/04/29 02:49:16;;;;;;;2.57;2.37;;;11.60;99.90;;;;;;5052475;28;20281;-55
2023/04/29 02:51:43;;;;;;;3.40;2.50;;;11.60;99.90;;;;;;5052973;28;20731;-55
2023/04/29 02:54:10;;;;;;;2.60;2.40;;;11.60;99.90;;;;;;5053360;28;20684;-55
2023/04/29 02:56:37;;;;;;;2.60;2.30;;;11.60;99.90;;;;;;5053540;28;20629;-55
2023/04/29 02:59:03;;;;;;;2.70;2.50;;;11.70;99.90;;;;;;5053776;28;20229;-55
2023/04/29 03:01:31;;;;;;;2.23;2.03;;;11.70;99.90;;;;;;5053683;28;20205;-55
2023/04/29 03:03:59;;;;;;;3.17;2.17;;;11.60;99.90;;;;;;5054086;28;20209;-55
2023/04/29 03:06:26;;;;;;;2.30;2.10;;;11.60;99.90;;;;;;5054133;28;20213;-55
2023/04/29 03:08:53;;;;;;;2.00;1.90;;;11.60;99.90;;;;;;5054509;28;20233;-55
2023/04/29 03:11:23;;;;;;;2.53;2.33;;;11.50;99.90;;;;;;5054542;28;20555;-55
2023/04/29 03:13:50;;;;;;;4.83;2.50;;;11.40;99.90;;;;;;5054461;28;20251;-55
2023/04/29 03:16:17;;;;;;;2.90;2.60;;;11.30;99.90;;;;;;5053676;28;20209;-55
2023/04/29 03:18:44;;;;;;;2.70;2.33;;;11.30;99.90;;;;;;5055098;28;20248;-56
2023/04/29 03:21:12;;;;;;;2.73;2.20;;;11.30;99.90;;;;;;5055075;28;20209;-55
2023/04/29 03:23:39;;;;;;;3.43;2.30;;;11.30;99.90;;;;;;5055061;28;20240;-55
2023/04/29 03:26:06;;;;;;;2.60;2.30;;;11.30;99.90;;;;;;5054601;28;20209;-56
2023/04/29 03:28:33;;;;;;;2.43;2.23;;;11.30;99.90;;;;;;5054206;28;20229;-53
2023/04/29 03:31:00;;;;;;;2.70;2.20;;;11.30;99.90;;;;;;5053426;28;20717;-55
2023/04/29 03:33:27;;;;;;;2.10;1.90;;;11.20;99.90;;;;;;5053102;28;20209;-54
2023/04/29 03:35:54;;;;;;;2.13;1.93;;;11.20;99.90;;;;;;5053009;28;20203;-54
2023/04/29 03:38:24;;;;;;;1.80;1.70;;;11.20;99.90;;;;;;5053010;28;20233;-53
2023/04/29 03:40:51;;;;;;;2.33;2.00;;;11.20;99.90;;;;;;5053131;28;20201;-55
2023/04/29 03:43:18;;;;;;;2.13;1.93;;;11.20;99.90;;;;;;5053410;28;20232;-56
2023/04/29 03:45:45;;;;;;;2.40;2.20;;;11.20;99.90;;;;;;5052947;28;20292;-56
2023/04/29 03:48:13;;;;;;;3.27;2.40;;;11.20;99.90;;;;;;5053734;28;20320;-55
2023/04/29 03:50:40;;;;;;;2.60;2.40;;;11.20;99.90;;;;;;5054172;28;20292;-54
2023/04/29 03:53:07;;;;;;;2.63;2.20;;;11.20;99.90;;;;;;5053904;28;20202;-54
2023/04/29 03:55:35;;;;;;;3.70;2.50;;;11.10;99.90;;;;;;5053614;28;20206;-54
2023/04/29 03:58:03;;;;;;;3.80;3.40;;;11.10;99.90;;;;;;5053697;28;20234;-56
2023/04/29 04:00:30;;;;;;;4.33;2.80;;;11.10;99.90;;;;;;5054457;28;20205;-57
2023/04/29 04:02:58;;;;;;;3.77;2.47;;;11.10;99.90;;;;;;5053978;28;20263;-57
2023/04/29 04:05:25;;;;;;;2.83;2.33;;;11.10;99.90;;;;;;5053504;28;20216;-55
2023/04/29 04:07:52;;;;;;;3.00;2.10;;;11.00;99.90;;;;;;5053876;28;20213;-56
2023/04/29 04:10:19;;;;;;;3.90;2.40;;;11.00;99.90;;;;;;5053807;28;20435;-55
2023/04/29 04:12:47;;;;;;;3.27;2.97;;;11.00;99.90;;;;;;5053551;28;20209;-54
2023/04/29 04:15:14;;;;;;;2.40;2.20;;;11.00;99.90;;;;;;5053422;28;20209;-55
2023/04/29 04:17:41;;;;;;;3.50;2.63;;;11.10;99.90;;;;;;5052832;28;20263;-55
2023/04/29 04:20:08;;;;;;;2.40;2.20;;;11.30;99.90;;;;;;5052648;28;20789;-54
2023/04/29 04:22:36;;;;;;;3.57;2.30;;;11.40;99.90;;;;;;5052231;28;20296;-55
2023/04/29 04:25:04;;;;;;;2.40;2.20;;;11.60;99.90;;;;;;5052297;28;20214;-56
2023/04/29 04:27:30;;;;;;;2.73;2.53;;;11.70;99.90;;;;;;5053065;28;20200;-55
2023/04/29 04:29:59;;;;;;;3.03;2.60;;;11.80;99.90;;;;;;5055770;28;20701;-54
2023/04/29 04:32:27;;;;;;;3.97;3.03;;;11.90;99.90;;;;;;5055768;28;20206;-54
2023/04/29 04:34:54;;;;;;;4.70;3.33;;;12.00;99.90;;;;;;5056230;28;20304;-55
2023/04/29 04:37:21;;;;;;;4.17;3.20;;;11.90;99.90;;;;;;5055935;28;20213;-55
2023/04/29 04:39:48;;;;;;;3.47;3.17;;;11.90;99.90;;;;;;5055816;28;20229;-55
2023/04/29 04:42:15;;;;;;;9.17;5.83;;;11.90;99.90;;;;;;5055375;28;20292;-55
2023/04/29 04:44:42;;;;;;;7.43;3.70;;;11.90;99.90;;;;;;5055676;28;20201;-57
2023/04/29 04:47:11;;;;;;;5.73;5.00;;;11.90;99.90;;;;;;5055392;28;20745;-55
2023/04/29 04:49:38;;;;;;;8.33;6.47;;;11.90;99.90;;;;;;5055542;28;20283;-55
2023/04/29 04:52:05;;;;;;;3.53;3.23;;;12.00;99.90;;;;;;5055062;28;20210;-54
2023/04/29 04:54:32;;;;;;;3.90;3.27;;;12.20;99.90;;;;;;5055410;28;20213;-55
2023/04/29 04:56:59;;;;;;;3.80;3.00;;;12.50;99.90;;;;;;5055537;28;20676;-55
2023/04/29 04:59:26;;;;;;;5.33;4.17;;;12.60;99.90;;;;;;5055102;28;20260;-56
2023/04/29 05:01:53;;;;;;;3.70;3.10;;;12.80;99.90;;;;;;5055063;28;20666;-56
2023/04/29 05:04:21;;;;;;;3.63;3.17;;;12.90;99.90;;;;;;5054869;28;20232;-56
2023/04/29 05:06:48;;;;;;;4.37;3.40;;;13.10;99.90;;;;;;5054969;28;20232;-62
2023/04/29 05:09:15;;;;;;;12.87;7.50;;;13.20;99.90;;;;;;5055175;28;20238;-58
2023/04/29 05:11:42;;;;;;;9.97;7.87;;;13.30;99.90;;;;;;5055490;28;20650;-55
2023/04/29 05:14:09;;;;;;;9.20;6.93;;;13.40;99.90;;;;;;5054528;28;20292;-56
2023/04/29 05:16:35;;;;;;;4.23;3.37;;;13.50;99.90;;;;;;5054469;28;20205;-55
2023/04/29 05:19:02;;;;;;;3.13;2.83;;;13.60;99.90;;;;;;5054614;28;20472;-55
2023/04/29 05:21:31;;;;;;;2.67;2.33;;;13.80;99.90;;;;;;5054876;28;20211;-56
2023/04/29 05:23:58;;;;;;;2.77;2.50;;;13.90;99.90;;;;;;5054150;28;20212;-56
2023/04/29 05:26:25;;;;;;;4.37;3.23;;;13.90;99.90;;;;;;5054572;28;20362;-56
2023/04/29 05:28:51;;;;;;;2.73;2.53;;;14.00;99.90;;;;;;5054240;28;20233;-56
2023/04/29 05:31:18;;;;;;;3.07;2.53;;;14.00;99.90;;;;;;5054397;28;20637;-56
2023/04/29 05:33:45;;;;;;;3.20;2.70;;;14.10;99.90;;;;;;5054245;28;20205;-56
2023/04/29 05:36:12;;;;;;;11.10;9.13;;;14.10;99.90;;;;;;5054088;28;20641;-56
2023/04/29 05:38:40;;;;;;;4.67;2.90;;;14.10;99.90;;;;;;5053478;28;20230;-56
2023/04/29 05:41:07;;;;;;;4.57;3.93;;;14.20;99.90;;;;;;5054061;28;20205;-55
2023/04/29 05:43:34;;;;;;;4.77;3.93;;;14.30;99.90;;;;;;5054331;28;20293;-55
2023/04/29 05:46:01;;;;;;;4.07;2.80;;;14.40;99.90;;;;;;5054321;28;20219;-56
2023/04/29 05:48:28;;;;;;;3.40;2.77;;;14.50;99.90;;;;;;5053745;28;20233;-56
2023/04/29 05:50:55;;;;;;;5.10;3.47;;;14.60;99.90;;;;;;5053933;28;20233;-55
2023/04/29 05:53:22;;;;;;;8.07;4.40;;;14.70;99.90;;;;;;5053811;28;20630;-55
2023/04/29 05:55:50;;;;;;;7.90;3.53;;;14.80;99.90;;;;;;5053755;28;20292;-55
2023/04/29 05:58:17;;;;;;;3.50;3.20;;;14.90;99.90;;;;;;5053957;28;20269;-55
2023/04/29 06:00:44;;;;;;;5.13;2.90;;;14.90;99.90;;;;;;5053974;28;20237;-55
2023/04/29 06:03:11;;;;;;;3.67;2.90;;;15.00;99.90;;;;;;5054088;28;20284;-55
2023/04/29 06:05:38;;;;;;;3.27;2.73;;;15.10;99.90;;;;;;5053752;28;20566;-55
2023/04/29 06:08:06;;;;;;;6.50;2.93;;;15.20;99.90;;;;;;5053960;28;20213;-55
2023/04/29 06:10:32;;;;;;;4.17;3.37;;;15.40;99.90;;;;;;5054068;28;20236;-55
2023/04/29 06:13:01;;;;;;;4.07;2.83;;;15.60;99.90;;;;;;5054210;28;20263;-55
2023/04/29 06:15:28;;;;;;;3.83;2.92;;;15.90;99.90;;;;;;5053880;28;20213;-55
2023/04/29 06:17:55;;;;;;;5.53;2.97;;;17.40;99.90;;;;;;5053872;28;20206;-55
2023/04/29 06:20:22;;;;;;;4.82;2.45;;;19.40;99.90;;;;;;5054291;28;20225;-56
2023/04/29 06:22:49;;;;;;;3.97;2.53;;;20.20;99.90;;;;;;5054024;28;20208;-55
2023/04/29 06:25:15;;;;;;;2.55;2.35;;;20.40;99.90;;;;;;5053774;28;20296;-56
2023/04/29 06:27:42;;;;;;;3.78;2.15;;;20.40;99.90;;;;;;5053670;28;20213;-56
2023/04/29 06:30:11;;;;;;;4.22;2.40;;;20.20;99.90;;;;;;5053343;28;20302;-55
2023/04/29 06:32:38;;;;;;;4.68;2.63;;;20.10;99.90;;;;;;5053065;28;20202;-56
2023/04/29 06:35:06;;;;;;;5.68;2.58;;;20.10;99.90;;;;;;5053639;28;20194;-56
2023/04/29 06:37:33;;;;;;;2.40;2.20;;;20.20;99.90;;;;;;5053161;28;20295;-56
2023/04/29 06:40:00;;;;;;;4.15;3.67;;;20.30;99.90;;;;;;5053125;28;20261;-56
2023/04/29 06:42:27;;;;;;;3.67;2.75;;;20.30;99.90;;;;;;5052754;28;20296;-56
2023/04/29 06:44:54;;;;;;;9.65;6.93;;;20.30;99.90;;;;;;5053065;28;20644;-56
2023/04/29 06:47:22;;;;;;;8.20;6.13;;;20.40;99.90;;;;;;5052786;28;20624;-56
2023/04/29 06:49:49;;;;;;;5.55;2.90;;;20.40;99.90;;;;;;5052793;28;20272;-56
2023/04/29 06:52:16;;;;;;;3.92;3.00;;;20.40;99.90;;;;;;5052440;28;20231;-56
2023/04/29 06:54:43;;;;;;;4.13;2.38;;;20.40;99.90;;;;;;5052809;28;20225;-56
2023/04/29 06:57:10;;;;;;;4.80;2.63;;;20.30;99.90;;;;;;5052671;28;20666;-56
2023/04/29 06:59:37;;;;;;;3.55;2.45;;;20.20;99.90;;;;;;5052379;28;20248;-56
2023/04/29 07:02:04;;;;;;;4.75;2.85;;;20.10;99.90;;;;;;5052352;28;20305;-56
2023/04/29 07:04:32;;;;;;;3.50;2.53;;;20.70;99.90;;;;;;5052388;28;20206;-56
2023/04/29 07:06:59;;;;;;;2.15;1.95;;;22.20;99.90;;;;;;5052682;28;20300;-56
2023/04/29 07:09:26;;;;;;;6.75;2.10;;;24.60;99.90;;;;;;5052299;28;20324;-56
2023/04/29 07:11:53;;;;;;;2.03;1.83;;;26.20;99.90;;;;;;5052344;28;20216;-57
2023/04/29 07:14:22;;;;;;;2.10;1.65;;;26.90;99.90;;;;;;5052220;28;20626;-57
2023/04/29 07:16:53;;;;;;;1.80;1.70;;;26.80;99.90;;;;;;5052574;28;20205;-57
2023/04/29 07:19:20;;;;;;;3.95;1.63;;;26.10;99.90;;;;;;5052580;28;20221;-57
2023/04/29 07:21:48;;;;;;;3.60;1.73;;;25.30;99.90;;;;;;5052605;28;20240;-57
2023/04/29 07:24:15;;;;;;;2.45;1.52;;;24.50;99.90;;;;;;5052049;28;20252;-57
2023/04/29 07:26:43;;;;;;;2.63;1.40;;;23.80;99.90;;;;;;5052258;28;20216;-56
2023/04/29 07:29:10;;;;;;;3.20;1.60;;;23.10;99.90;;;;;;5052228;28;20226;-56
2023/04/29 07:31:37;;;;;;;2.53;1.27;;;22.70;99.90;;;;;;5052808;28;20205;-56
2023/04/29 07:34:04;;;;;;;1.80;1.40;;;22.60;99.90;;;;;;5052171;28;20212;-56
2023/04/29 07:36:31;;;;;;;2.78;1.38;;;22.40;99.90;;;;;;5052414;28;20300;-57
2023/04/29 07:39:00;;;;;;;2.60;1.55;;;22.10;99.90;;;;;;5052943;28;20747;-56
2023/04/29 07:41:27;;;;;;;2.17;1.52;;;21.80;99.90;;;;;;5053003;28;20259;-56
2023/04/29 07:43:54;;;;;;;4.43;1.67;;;21.60;99.90;;;;;;5052724;28;20210;-55
2023/04/29 07:46:21;;;;;;;2.08;1.67;;;21.40;99.90;;;;;;5051965;28;20225;-56
2023/04/29 07:48:48;;;;;;;4.18;1.58;;;21.20;99.90;;;;;;5052114;28;20243;-56
2023/04/29 07:51:15;;;;;;;3.33;1.60;;;21.10;99.90;;;;;;5052133;28;20216;-56
2023/04/29 07:53:42;;;;;;;1.73;1.55;;;21.00;99.90;;;;;;5052038;28;20209;-55
2023/04/29 07:56:10;;;;;;;2.65;1.55;;;20.80;99.90;;;;;;5052034;28;20209;-56
2023/04/29 07:58:37;;;;;;;2.78;1.50;;;20.60;99.90;;;;;;5051947;28;20252;-55
2023/04/29 08:01:08;;;;;;;3.67;1.60;;;20.50;99.90;;;;;;5052321;28;20251;-55
2023/04/29 08:03:35;;;;;;;2.25;1.58;;;20.50;99.90;;;;;;5054318;28;20207;-55
2023/04/29 08:06:03;;;;;;;3.17;1.90;;;20.50;99.90;;;;;;5055802;28;20225;-56
2023/04/29 08:08:30;;;;;;;1.77;1.63;;;20.30;99.90;;;;;;5055665;28;20225;-54
2023/04/29 08:10:57;;;;;;;2.92;1.80;;;20.10;99.90;;;;;;5055464;28;20229;-55
2023/04/29 08:13:26;;;;;;;2.00;1.70;;;19.90;99.90;;;;;;5055665;28;20205;-54
2023/04/29 08:15:53;;;;;;;1.67;1.58;;;19.80;99.90;;;;;;5055578;28;20268;-55
2023/04/29 08:18:20;;;;;;;2.17;1.90;;;19.80;99.90;;;;;;5055383;28;20548;-55
2023/04/29 08:20:49;;;;;;;2.97;1.98;;;19.90;99.90;;;;;;5055573;28;20202;-56
2023/04/29 08:23:16;;;;;;;2.77;1.97;;;19.90;99.90;;;;;;5057914;28;20683;-56
2023/04/29 08:25:43;;;;;;;2.90;2.60;;;19.90;99.90;;;;;;5076987;28;20215;-56
2023/04/29 08:28:10;;;;;;;3.38;2.05;;;20.10;99.90;;;;;;5078074;28;20301;-56
2023/04/29 08:30:40;;;;;;;4.75;2.00;;;20.30;99.90;;;;;;5077033;28;20303;-56
2023/04/29 08:33:07;;;;;;;3.72;2.00;;;20.00;99.90;;;;;;5077686;28;20200;-56
2023/04/29 08:35:36;;;;;;;2.03;1.77;;;19.70;99.90;;;;;;5076762;28;20277;-56
2023/04/29 08:38:05;;;;;;;3.70;1.77;;;19.60;99.90;;;;;;5077171;28;20243;-56
2023/04/29 08:40:34;;;;;;;4.10;1.88;;;19.80;99.90;;;;;;5077990;28;20209;-56
2023/04/29 08:43:02;;;;;;;4.22;2.75;;;20.30;99.90;;;;;;5076950;28;20211;-57
2023/04/29 08:45:31;;;;;;;2.03;1.55;;;20.70;99.90;;;;;;5077342;28;20296;-57
2023/04/29 08:48:00;;;;;;;2.50;1.65;;;21.00;99.90;;;;;;5077101;28;20245;-57
2023/04/29 08:50:28;;;;;;;2.25;2.05;;;20.90;99.90;;;;;;5077406;28;20298;-56
2023/04/29 08:52:56;;;;;;;3.13;2.00;;;20.80;99.90;;;;;;5077339;28;20300;-59
2023/04/29 08:55:23;;;;;;;2.10;1.60;;;21.10;99.90;;;;;;5077299;28;20748;-58
2023/04/29 08:57:51;;;;;;;1.90;1.60;;;21.60;99.90;;;;;;5077462;28;20204;-57
2023/04/29 09:00:19;;;;;;;2.15;1.73;;;22.00;99.90;;;;;;5076835;28;20260;-58
2023/04/29 09:02:50;;;;;;;4.03;1.77;;;22.20;99.90;;;;;;5076968;28;20242;-58
2023/04/29 09:05:19;;;;;;;2.15;1.65;;;22.30;99.90;;;;;;5077065;28;20880;-58
2023/04/29 09:07:46;;;;;;;1.63;1.40;;;22.30;99.90;;;;;;5077788;28;20201;-58
2023/04/29 09:10:14;;;;;;;2.45;1.90;;;22.10;99.90;;;;;;5077293;28;20224;-58
2023/04/29 09:12:40;;;;;;;2.05;1.65;;;22.20;99.90;;;;;;5076333;28;20201;-58
2023/04/29 09:15:08;;;;;;;3.42;1.58;;;22.20;99.90;;;;;;5076778;28;20209;-57
2023/04/29 09:17:42;;;;;;;1.90;1.80;;;22.10;99.90;;;;;;5077303;28;20575;-58
2023/04/29 09:20:30;;;;;;;1.58;1.48;;;22.20;99.90;;;;;;5077365;28;20233;-59
2023/04/29 09:22:58;;;;;;;1.50;1.40;;;22.50;99.90;;;;;;5077617;28;20213;-58
2023/04/29 09:25:26;;;;;;;1.90;1.42;;;22.50;99.90;;;;;;5077967;28;20215;-58
2023/04/29 09:27:53;;;;;;;3.47;1.65;;;22.70;99.90;;;;;;5078287;28;20274;-60
2023/04/29 09:30:20;;;;;;;1.50;1.35;;;22.90;99.90;;;;;;5077549;28;20277;-59
2023/04/29 09:33:05;;;;;;;1.90;1.65;;;23.10;99.90;;;;;;5078552;28;20205;-59
2023/04/29 09:35:33;;;;;;;2.70;1.58;;;23.60;99.90;;;;;;5078370;28;20201;-61
2023/04/29 09:38:09;;;;;;;1.73;1.40;;;23.70;99.90;;;;;;5079385;28;20201;-61
2023/04/29 09:40:36;;;;;;;1.73;1.60;;;23.30;99.90;;;;;;5078394;28;20204;-60
2023/04/29 09:43:03;;;;;;;2.08;1.58;;;23.20;99.90;;;;;;5078866;28;20205;-59
2023/04/29 09:45:38;;;;;;;2.00;1.60;;;23.00;99.90;;;;;;5077866;28;20300;-58
2023/04/29 09:48:06;;;;;;;2.22;1.80;;;23.00;99.90;;;;;;5078026;28;20208;-60
2023/04/29 09:50:36;;;;;;;2.00;1.80;;;23.20;99.90;;;;;;5078377;28;20225;-60
2023/04/29 09:53:03;;;;;;;2.45;2.25;;;23.40;99.90;;;;;;5077958;28;20227;-58
2023/04/29 09:55:30;;;;;;;3.22;2.83;;;23.20;99.90;;;;;;5078117;28;20208;-60
2023/04/29 09:57:59;;;;;;;3.15;2.50;;;23.30;99.90;;;;;;5078455;28;20262;-59
2023/04/29 10:00:31;;;;;;;1.83;1.73;;;23.20;99.90;;;;;;5077816;28;20232;-57
2023/04/29 10:03:00;;;;;;;2.05;1.70;;;23.00;99.90;;;;;;5076944;28;20268;-58
2023/04/29 10:05:29;;;;;;;4.55;1.80;;;22.70;99.90;;;;;;5075121;28;20213;-58
2023/04/29 10:07:58;;;;;;;2.35;1.85;;;22.40;99.90;;;;;;5074645;28;20215;-58
2023/04/29 10:10:28;;;;;;;4.80;2.10;;;22.10;99.90;;;;;;5074432;28;20233;-58
2023/04/29 10:12:55;;;;;;;1.92;1.80;;;21.90;99.90;;;;;;5074600;28;20205;-58
2023/04/29 10:15:29;;;;;;;3.28;1.80;;;21.60;99.90;;;;;;5074772;28;20648;-58
2023/04/29 10:18:03;;;;;;;2.35;2.15;;;21.60;99.90;;;;;;5074756;28;20213;-59
2023/04/29 10:20:31;;;;;;;2.30;2.00;;;21.30;99.90;;;;;;5074468;28;20200;-59
2023/04/29 10:23:00;;;;;;;2.10;1.83;;;21.00;99.90;;;;;;5073802;28;20209;-57
2023/04/29 10:25:28;;;;;;;1.90;1.65;;;20.60;99.90;;;;;;5074055;28;20732;-57
2023/04/29 10:27:55;;;;;;;2.42;1.88;;;20.40;99.90;;;;;;5074134;28;20708;-58
2023/04/29 10:30:22;;;;;;;2.50;2.00;;;20.10;99.90;;;;;;5074535;28;20233;-58
2023/04/29 10:32:51;;;;;;;3.75;2.10;;;20.10;99.90;;;;;;5074751;28;20213;-58
2023/04/29 10:35:19;;;;;;;2.47;1.90;;;20.10;99.90;;;;;;5074722;28;20692;-57
2023/04/29 10:37:47;;;;;;;1.92;1.83;;;20.30;99.90;;;;;;5073712;28;20207;-58
2023/04/29 10:40:20;;;;;;;3.67;2.00;;;20.80;99.90;;;;;;5073768;28;20236;-59
2023/04/29 10:42:49;;;;;;;3.00;2.00;;;21.30;99.90;;;;;;5073162;28;20212;-57
2023/04/29 10:45:23;;;;;;;2.33;2.13;;;21.50;99.90;;;;;;5073635;28;20568;-57
2023/04/29 10:48:14;;;;;;;3.95;2.72;;;21.40;99.90;;;;;;5074075;28;20275;-57
2023/04/29 10:51:03;;;;;;;3.13;2.30;;;21.30;99.90;;;;;;5060581;28;20231;-58
2023/04/29 10:53:30;;;;;;;2.90;2.45;;;21.00;99.90;;;;;;5075060;28;20212;-58
2023/04/29 10:56:04;;;;;;;3.63;3.08;;;21.00;99.90;;;;;;5076317;28;20219;-59
2023/04/29 10:58:42;;;;;;;3.17;2.80;;;21.00;99.90;;;;;;5077108;28;20231;-58
2023/04/29 11:01:11;;;;;;;3.10;2.80;;;21.00;99.90;;;;;;5076185;28;20641;-58
2023/04/29 11:03:57;;;;;;;4.60;3.22;;;21.10;99.90;;;;;;5075279;28;20212;-58
2023/04/29 11:06:24;;;;;;;3.63;3.25;;;21.00;99.90;;;;;;5076030;28;20193;-58
2023/04/29 11:09:01;;;;;;;3.55;2.72;;;21.00;99.90;;;;;;5075650;28;20259;-59
2023/04/29 11:11:42;;;;;;;2.92;2.72;;;21.20;99.90;;;;;;5074723;28;20220;-57
2023/04/29 11:14:10;;;;;;;5.93;2.78;;;21.20;99.90;;;;;;5075566;28;20196;-58
2023/04/29 11:16:37;;;;;;;3.22;2.85;;;21.20;99.90;;;;;;5074625;28;20265;-58
2023/04/29 11:19:06;;;;;;;2.92;2.63;;;21.50;99.90;;;;;;5075642;28;20236;-59
2023/04/29 11:21:35;;;;;;;3.05;2.53;;;21.60;99.90;;;;;;5075600;28;20262;-59
2023/04/29 11:24:03;;;;;;;3.25;2.80;;;21.30;99.90;;;;;;5075142;28;20200;-56
2023/04/29 11:26:30;;;;;;;3.30;3.00;;;20.90;99.90;;;;;;5074486;28;20201;-60
2023/04/29 11:28:58;;;;;;;4.00;3.00;;;20.60;99.90;;;;;;5074877;28;20315;-57
2023/04/29 11:31:31;;;;;;;3.60;3.10;;;20.60;99.90;;;;;;5075595;28;20288;-57
2023/04/29 11:33:58;;;;;;;3.55;3.10;;;20.80;99.90;;;;;;5075288;28;20216;-57
2023/04/29 11:36:26;;;;;;;2.97;2.55;;;21.30;99.90;;;;;;5076198;28;20211;-60
2023/04/29 11:38:53;;;;;;;3.65;3.35;;;21.50;99.90;;;;;;5079376;28;20315;-59
2023/04/29 11:41:21;;;;;;;4.93;3.30;;;21.50;99.90;;;;;;5077101;28;20212;-60
2023/04/29 11:43:55;;;;;;;5.78;3.30;;;21.40;99.90;;;;;;5059454;28;20221;-61
2023/04/29 11:46:23;;;;;;;5.03;3.05;;;21.40;99.90;;;;;;5061564;28;20640;-59
2023/04/29 11:48:50;;;;;;;4.10;3.40;;;21.00;99.90;;;;;;5061690;28;20244;-59
2023/04/29 11:51:18;;;;;;;5.00;3.88;;;20.70;99.90;;;;;;5072890;28;20308;-59
2023/04/29 11:53:46;;;;;;;5.28;4.07;;;20.40;99.90;;;;;;5080401;28;20219;-59
2023/04/29 11:56:13;;;;;;;3.15;2.85;;;20.10;99.90;;;;;;5080178;28;20734;-59
2023/04/29 11:58:41;;;;;;;4.68;3.30;;;19.90;99.90;;;;;;5079593;28;20252;-58
2023/04/29 12:01:08;;;;;;;3.35;2.63;;;19.70;99.90;;;;;;5080188;28;20593;-59
2023/04/29 12:03:37;;;;;;;3.92;2.50;;;19.60;99.90;;;;;;5080147;28;20614;-58
2023/04/29 12:06:04;;;;;;;6.70;3.92;;;19.50;99.90;;;;;;5078175;28;20209;-57
2023/04/29 12:08:32;;;;;;;3.92;3.22;;;19.50;99.90;;;;;;5079395;28;20232;-58
2023/04/29 12:11:00;;;;;;;4.00;2.78;;;19.70;99.90;;;;;;5079124;28;20266;-57
2023/04/29 12:13:29;;;;;;;5.00;3.35;;;19.60;99.90;;;;;;5078643;28;20213;-58
2023/04/29 12:15:57;;;;;;;4.50;3.50;;;19.60;99.90;;;;;;5079570;28;20664;-57
2023/04/29 12:18:26;;;;;;;3.38;3.08;;;19.60;99.90;;;;;;5077705;28;20327;-57
2023/04/29 12:20:55;;;;;;;4.85;3.78;;;19.70;99.90;;;;;;5078204;28;20212;-57
2023/04/29 12:23:25;;;;;;;3.67;3.30;;;19.90;99.90;;;;;;5078084;28;20574;-57
2023/04/29 12:25:54;;;;;;;4.88;3.80;;;20.30;99.90;;;;;;5078445;28;20208;-61
2023/04/29 12:28:21;;;;;;;5.07;3.55;;;20.60;99.90;;;;;;5079305;28;20281;-58
2023/04/29 12:30:48;;;;;;;3.53;3.20;;;20.80;99.90;;;;;;5079184;28;20589;-57
2023/04/29 12:33:22;;;;;;;4.38;3.97;;;21.00;99.90;;;;;;5081549;28;20299;-60
2023/04/29 12:35:50;;;;;;;4.47;3.50;;;21.30;99.90;;;;;;5079564;28;20207;-58
2023/04/29 12:38:20;;;;;;;4.45;3.92;;;21.50;99.90;;;;;;5078114;28;20276;-60
2023/04/29 12:40:47;;;;;;;5.68;3.80;;;21.50;99.90;;;;;;5079934;28;20201;-58
2023/04/29 12:43:15;;;;;;;5.53;4.22;;;21.50;99.90;;;;;;5079046;28;20346;-57
2023/04/29 12:45:42;;;;;;;5.38;4.68;;;21.80;99.90;;;;;;5077859;28;20661;-57
2023/04/29 12:48:08;;;;;;;4.15;3.75;;;21.80;99.90;;;;;;5077978;28;20201;-58
2023/04/29 12:50:37;;;;;;;5.75;4.40;;;21.60;99.90;;;;;;5078498;28;20730;-63
2023/04/29 12:53:05;;;;;;;6.32;4.30;;;21.30;99.90;;;;;;5079440;28;20295;-59